Terminal Aerodrome Forecast
Issued by NWS

Home | Current Version | Previous Version | Text Only | Print | Product List | Glossary On
Versions: 1 2 3 4 5 6 7 8 9 10 11 12 13 14 15 16 17 18 19 20 21 22 23 24 25 26 27 28 29 30 31 32 33 34
947
FTUS46 KLOX 210002 CCA
TAFLGB
TAF COR
KLGB 210002Z 2100/2124 27015G25KT P6SM -SHRA SCT025 BKN040
     FM210300 28015G25KT P6SM -SHRA BKN025 OVC040
     FM211000 30010G16KT P6SM VCSH SCT050 BKN120
     FM212000 24012KT P6SM SCT025 SCT050=

USA.gov is the U.S. government's official web portal to all federal, state and local government web resources and services.